sensor_id;sensor_type;location;lat;lon;timestamp;P1;durP1;ratioP1;P2;durP2;ratioP2
4311;SDS011;2169;49.086;9.284;2023-05-10T00:02:25;2.50;;;1.00;;
4311;SDS011;2169;49.086;9.284;2023-05-10T00:04:52;0.50;;;0.50;;
4311;SDS011;2169;49.086;9.284;2023-05-10T00:07:19;0.60;;;0.60;;
4311;SDS011;2169;49.086;9.284;2023-05-10T00:09:46;0.80;;;0.80;;
4311;SDS011;2169;49.086;9.284;2023-05-10T00:12:12;1.43;;;0.60;;
4311;SDS011;2169;49.086;9.284;2023-05-10T00:14:40;0.70;;;0.70;;
4311;SDS011;2169;49.086;9.284;2023-05-10T00:17:10;0.67;;;0.67;;
4311;SDS011;2169;49.086;9.284;2023-05-10T00:19:37;0.70;;;0.70;;
4311;SDS011;2169;49.086;9.284;2023-05-10T00:22:03;0.60;;;0.60;;
4311;SDS011;2169;49.086;9.284;2023-05-10T00:24:30;0.70;;;0.70;;
4311;SDS011;2169;49.086;9.284;2023-05-10T00:26:57;3.60;;;2.97;;
4311;SDS011;2169;49.086;9.284;2023-05-10T00:29:25;0.67;;;0.60;;
4311;SDS011;2169;49.086;9.284;2023-05-10T00:31:54;0.70;;;0.70;;
4311;SDS011;2169;49.086;9.284;2023-05-10T00:34:21;0.70;;;0.70;;
4311;SDS011;2169;49.086;9.284;2023-05-10T00:36:48;0.60;;;0.60;;
4311;SDS011;2169;49.086;9.284;2023-05-10T00:39:14;0.70;;;0.70;;
4311;SDS011;2169;49.086;9.284;2023-05-10T00:41:41;0.70;;;0.70;;
4311;SDS011;2169;49.086;9.284;2023-05-10T00:44:08;0.80;;;0.70;;
4311;SDS011;2169;49.086;9.284;2023-05-10T00:46:35;0.50;;;0.50;;
4311;SDS011;2169;49.086;9.284;2023-05-10T00:49:03;2.50;;;0.67;;
4311;SDS011;2169;49.086;9.284;2023-05-10T00:51:30;0.63;;;0.63;;
4311;SDS011;2169;49.086;9.284;2023-05-10T00:53:57;0.73;;;0.60;;
4311;SDS011;2169;49.086;9.284;2023-05-10T00:56:25;0.70;;;0.70;;
4311;SDS011;2169;49.086;9.284;2023-05-10T00:58:54;0.67;;;0.67;;
4311;SDS011;2169;49.086;9.284;2023-05-10T01:01:21;0.60;;;0.60;;
4311;SDS011;2169;49.086;9.284;2023-05-10T01:03:48;0.70;;;0.70;;
4311;SDS011;2169;49.086;9.284;2023-05-10T01:06:17;0.60;;;0.60;;
4311;SDS011;2169;49.086;9.284;2023-05-10T01:08:44;1.33;;;0.70;;
4311;SDS011;2169;49.086;9.284;2023-05-10T01:11:10;0.60;;;0.50;;
4311;SDS011;2169;49.086;9.284;2023-05-10T01:13:38;0.60;;;0.60;;
4311;SDS011;2169;49.086;9.284;2023-05-10T01:16:07;4.43;;;0.70;;
4311;SDS011;2169;49.086;9.284;2023-05-10T01:18:35;0.93;;;0.90;;
4311;SDS011;2169;49.086;9.284;2023-05-10T01:21:06;0.70;;;0.70;;
4311;SDS011;2169;49.086;9.284;2023-05-10T01:24:03;0.70;;;0.60;;
4311;SDS011;2169;49.086;9.284;2023-05-10T01:26:44;2.20;;;0.60;;
4311;SDS011;2169;49.086;9.284;2023-05-10T01:32:36;3.10;;;0.80;;
4311;SDS011;2169;49.086;9.284;2023-05-10T01:35:12;0.67;;;0.67;;
4311;SDS011;2169;49.086;9.284;2023-05-10T01:37:45;1.50;;;1.40;;
4311;SDS011;2169;49.086;9.284;2023-05-10T01:40:17;2.97;;;0.73;;
4311;SDS011;2169;49.086;9.284;2023-05-10T01:42:50;0.80;;;0.80;;
4311;SDS011;2169;49.086;9.284;2023-05-10T01:45:23;2.00;;;0.80;;
4311;SDS011;2169;49.086;9.284;2023-05-10T01:48:01;2.30;;;1.00;;
4311;SDS011;2169;49.086;9.284;2023-05-10T01:50:31;0.60;;;0.60;;
4311;SDS011;2169;49.086;9.284;2023-05-10T01:53:00;0.93;;;0.80;;
4311;SDS011;2169;49.086;9.284;2023-05-10T01:55:29;0.70;;;0.70;;
4311;SDS011;2169;49.086;9.284;2023-05-10T01:58:00;1.40;;;1.20;;
4311;SDS011;2169;49.086;9.284;2023-05-10T02:00:29;1.00;;;1.00;;
4311;SDS011;2169;49.086;9.284;2023-05-10T02:02:59;0.70;;;0.70;;
4311;SDS011;2169;49.086;9.284;2023-05-10T02:05:29;0.70;;;0.70;;
4311;SDS011;2169;49.086;9.284;2023-05-10T02:07:58;1.07;;;0.77;;
4311;SDS011;2169;49.086;9.284;2023-05-10T02:10:27;0.70;;;0.70;;
4311;SDS011;2169;49.086;9.284;2023-05-10T02:12:54;0.70;;;0.70;;
4311;SDS011;2169;49.086;9.284;2023-05-10T02:15:24;0.70;;;0.70;;
4311;SDS011;2169;49.086;9.284;2023-05-10T02:17:52;0.80;;;0.80;;
4311;SDS011;2169;49.086;9.284;2023-05-10T02:20:22;0.83;;;0.83;;
4311;SDS011;2169;49.086;9.284;2023-05-10T02:22:51;0.70;;;0.70;;
4311;SDS011;2169;49.086;9.284;2023-05-10T02:25:21;0.83;;;0.83;;
4311;SDS011;2169;49.086;9.284;2023-05-10T02:27:50;2.47;;;1.17;;
4311;SDS011;2169;49.086;9.284;2023-05-10T02:30:20;1.13;;;1.13;;
4311;SDS011;2169;49.086;9.284;2023-05-10T02:32:47;0.80;;;0.80;;
4311;SDS011;2169;49.086;9.284;2023-05-10T02:35:15;2.53;;;0.73;;
4311;SDS011;2169;49.086;9.284;2023-05-10T02:37:44;1.00;;;1.00;;
4311;SDS011;2169;49.086;9.284;2023-05-10T02:40:12;0.87;;;0.87;;
4311;SDS011;2169;49.086;9.284;2023-05-10T02:42:42;0.90;;;0.90;;
4311;SDS011;2169;49.086;9.284;2023-05-10T02:45:11;0.73;;;0.73;;
4311;SDS011;2169;49.086;9.284;2023-05-10T02:47:40;0.97;;;0.97;;
4311;SDS011;2169;49.086;9.284;2023-05-10T02:50:08;1.33;;;1.00;;
4311;SDS011;2169;49.086;9.284;2023-05-10T02:52:38;2.03;;;0.80;;
4311;SDS011;2169;49.086;9.284;2023-05-10T02:55:09;1.27;;;1.27;;
4311;SDS011;2169;49.086;9.284;2023-05-10T02:57:40;0.87;;;0.87;;
4311;SDS011;2169;49.086;9.284;2023-05-10T03:00:10;0.87;;;0.80;;
4311;SDS011;2169;49.086;9.284;2023-05-10T03:02:37;1.00;;;1.00;;
4311;SDS011;2169;49.086;9.284;2023-05-10T03:05:04;1.17;;;1.07;;
4311;SDS011;2169;49.086;9.284;2023-05-10T03:07:32;0.83;;;0.83;;
4311;SDS011;2169;49.086;9.284;2023-05-10T03:09:59;0.90;;;0.90;;
4311;SDS011;2169;49.086;9.284;2023-05-10T03:12:30;0.90;;;0.90;;
4311;SDS011;2169;49.086;9.284;2023-05-10T03:15:07;0.70;;;0.70;;
4311;SDS011;2169;49.086;9.284;2023-05-10T03:17:40;7.93;;;1.13;;
4311;SDS011;2169;49.086;9.284;2023-05-10T03:20:15;3.93;;;1.10;;
4311;SDS011;2169;49.086;9.284;2023-05-10T03:22:47;0.93;;;0.73;;
4311;SDS011;2169;49.086;9.284;2023-05-10T03:25:19;1.07;;;1.07;;
4311;SDS011;2169;49.086;9.284;2023-05-10T03:27:49;4.47;;;1.27;;
4311;SDS011;2169;49.086;9.284;2023-05-10T03:30:16;0.90;;;0.73;;
4311;SDS011;2169;49.086;9.284;2023-05-10T03:32:45;0.70;;;0.70;;
4311;SDS011;2169;49.086;9.284;2023-05-10T03:35:12;0.90;;;0.90;;
4311;SDS011;2169;49.086;9.284;2023-05-10T03:37:39;1.07;;;1.00;;
4311;SDS011;2169;49.086;9.284;2023-05-10T03:40:06;2.60;;;1.17;;
4311;SDS011;2169;49.086;9.284;2023-05-10T03:42:34;0.93;;;0.93;;
4311;SDS011;2169;49.086;9.284;2023-05-10T03:45:02;2.43;;;0.80;;
4311;SDS011;2169;49.086;9.284;2023-05-10T03:47:29;1.17;;;1.17;;
4311;SDS011;2169;49.086;9.284;2023-05-10T03:49:56;1.40;;;1.40;;
4311;SDS011;2169;49.086;9.284;2023-05-10T03:52:23;0.80;;;0.80;;
4311;SDS011;2169;49.086;9.284;2023-05-10T03:54:50;0.80;;;0.80;;
4311;SDS011;2169;49.086;9.284;2023-05-10T03:57:17;1.20;;;1.10;;
4311;SDS011;2169;49.086;9.284;2023-05-10T03:59:43;1.03;;;1.03;;
4311;SDS011;2169;49.086;9.284;2023-05-10T04:02:11;1.20;;;1.20;;
4311;SDS011;2169;49.086;9.284;2023-05-10T04:04:38;2.37;;;1.43;;
4311;SDS011;2169;49.086;9.284;2023-05-10T04:07:05;0.80;;;0.80;;
4311;SDS011;2169;49.086;9.284;2023-05-10T04:09:32;1.30;;;1.20;;
4311;SDS011;2169;49.086;9.284;2023-05-10T04:11:58;4.40;;;2.23;;
4311;SDS011;2169;49.086;9.284;2023-05-10T04:14:27;7.20;;;1.57;;
4311;SDS011;2169;49.086;9.284;2023-05-10T04:16:54;5.20;;;2.03;;
4311;SDS011;2169;49.086;9.284;2023-05-10T04:19:22;1.50;;;1.40;;
4311;SDS011;2169;49.086;9.284;2023-05-10T04:21:49;14.17;;;2.27;;
4311;SDS011;2169;49.086;9.284;2023-05-10T04:24:16;1.90;;;1.80;;
4311;SDS011;2169;49.086;9.284;2023-05-10T04:26:42;3.00;;;2.47;;
4311;SDS011;2169;49.086;9.284;2023-05-10T04:29:10;2.60;;;2.40;;
4311;SDS011;2169;49.086;9.284;2023-05-10T04:31:37;2.60;;;1.60;;
4311;SDS011;2169;49.086;9.284;2023-05-10T04:34:04;1.53;;;1.20;;
4311;SDS011;2169;49.086;9.284;2023-05-10T04:36:32;7.23;;;1.20;;
4311;SDS011;2169;49.086;9.284;2023-05-10T04:39:00;1.70;;;1.60;;
4311;SDS011;2169;49.086;9.284;2023-05-10T04:41:27;2.00;;;1.30;;
4311;SDS011;2169;49.086;9.284;2023-05-10T04:43:54;2.43;;;2.17;;
4311;SDS011;2169;49.086;9.284;2023-05-10T04:46:21;3.50;;;1.80;;
4311;SDS011;2169;49.086;9.284;2023-05-10T04:48:48;2.07;;;1.97;;
4311;SDS011;2169;49.086;9.284;2023-05-10T04:51:14;1.10;;;1.00;;
4311;SDS011;2169;49.086;9.284;2023-05-10T04:53:43;1.40;;;1.30;;
4311;SDS011;2169;49.086;9.284;2023-05-10T04:56:09;6.70;;;2.03;;
4311;SDS011;2169;49.086;9.284;2023-05-10T04:58:36;2.23;;;2.13;;
4311;SDS011;2169;49.086;9.284;2023-05-10T05:01:05;2.20;;;2.10;;
4311;SDS011;2169;49.086;9.284;2023-05-10T05:03:33;3.07;;;1.80;;
4311;SDS011;2169;49.086;9.284;2023-05-10T05:06:00;11.10;;;2.70;;
4311;SDS011;2169;49.086;9.284;2023-05-10T05:08:27;3.13;;;1.70;;
4311;SDS011;2169;49.086;9.284;2023-05-10T05:10:55;2.07;;;1.97;;
4311;SDS011;2169;49.086;9.284;2023-05-10T05:13:21;3.23;;;2.40;;
4311;SDS011;2169;49.086;9.284;2023-05-10T05:15:48;2.20;;;2.00;;
4311;SDS011;2169;49.086;9.284;2023-05-10T05:18:15;3.83;;;2.10;;
4311;SDS011;2169;49.086;9.284;2023-05-10T05:20:42;2.00;;;1.90;;
4311;SDS011;2169;49.086;9.284;2023-05-10T05:23:09;6.23;;;2.23;;
4311;SDS011;2169;49.086;9.284;2023-05-10T05:25:36;2.83;;;2.63;;
4311;SDS011;2169;49.086;9.284;2023-05-10T05:28:04;3.70;;;2.60;;
4311;SDS011;2169;49.086;9.284;2023-05-10T05:30:31;2.43;;;2.23;;
4311;SDS011;2169;49.086;9.284;2023-05-10T05:32:58;1.60;;;1.50;;
4311;SDS011;2169;49.086;9.284;2023-05-10T05:35:24;2.47;;;2.37;;
4311;SDS011;2169;49.086;9.284;2023-05-10T05:37:51;1.93;;;1.73;;
4311;SDS011;2169;49.086;9.284;2023-05-10T05:40:18;1.87;;;1.77;;
4311;SDS011;2169;49.086;9.284;2023-05-10T05:42:45;1.77;;;1.70;;
4311;SDS011;2169;49.086;9.284;2023-05-10T05:45:13;3.23;;;1.73;;
4311;SDS011;2169;49.086;9.284;2023-05-10T05:47:40;2.43;;;2.17;;
4311;SDS011;2169;49.086;9.284;2023-05-10T05:50:07;2.43;;;2.33;;
4311;SDS011;2169;49.086;9.284;2023-05-10T05:52:35;2.03;;;1.93;;
4311;SDS011;2169;49.086;9.284;2023-05-10T05:55:02;1.53;;;1.43;;
4311;SDS011;2169;49.086;9.284;2023-05-10T05:57:29;3.03;;;1.93;;
4311;SDS011;2169;49.086;9.284;2023-05-10T05:59:56;3.57;;;2.10;;
4311;SDS011;2169;49.086;9.284;2023-05-10T06:02:24;2.27;;;2.07;;
4311;SDS011;2169;49.086;9.284;2023-05-10T06:04:50;6.97;;;1.87;;
4311;SDS011;2169;49.086;9.284;2023-05-10T06:07:17;2.40;;;2.23;;
4311;SDS011;2169;49.086;9.284;2023-05-10T06:09:44;2.57;;;2.07;;
4311;SDS011;2169;49.086;9.284;2023-05-10T06:12:10;7.60;;;2.90;;
4311;SDS011;2169;49.086;9.284;2023-05-10T06:14:37;2.10;;;2.00;;
4311;SDS011;2169;49.086;9.284;2023-05-10T06:17:04;2.50;;;2.37;;
4311;SDS011;2169;49.086;9.284;2023-05-10T06:19:33;2.87;;;2.27;;
4311;SDS011;2169;49.086;9.284;2023-05-10T06:21:59;2.57;;;2.37;;
4311;SDS011;2169;49.086;9.284;2023-05-10T06:24:26;2.60;;;2.03;;
4311;SDS011;2169;49.086;9.284;2023-05-10T06:26:53;4.17;;;3.30;;
4311;SDS011;2169;49.086;9.284;2023-05-10T06:29:20;10.63;;;2.60;;
4311;SDS011;2169;49.086;9.284;2023-05-10T06:31:47;3.40;;;3.17;;
4311;SDS011;2169;49.086;9.284;2023-05-10T06:34:13;2.20;;;2.10;;
4311;SDS011;2169;49.086;9.284;2023-05-10T06:36:41;4.97;;;2.50;;
4311;SDS011;2169;49.086;9.284;2023-05-10T06:39:08;2.20;;;2.10;;
4311;SDS011;2169;49.086;9.284;2023-05-10T06:41:36;2.13;;;2.03;;
4311;SDS011;2169;49.086;9.284;2023-05-10T06:44:03;3.27;;;2.83;;
4311;SDS011;2169;49.086;9.284;2023-05-10T06:46:30;3.30;;;1.70;;
4311;SDS011;2169;49.086;9.284;2023-05-10T06:48:57;2.73;;;2.53;;
4311;SDS011;2169;49.086;9.284;2023-05-10T06:51:24;1.77;;;1.67;;
4311;SDS011;2169;49.086;9.284;2023-05-10T06:53:52;4.07;;;1.87;;
4311;SDS011;2169;49.086;9.284;2023-05-10T06:56:19;1.63;;;1.57;;
4311;SDS011;2169;49.086;9.284;2023-05-10T06:58:46;5.37;;;1.67;;
4311;SDS011;2169;49.086;9.284;2023-05-10T07:01:13;4.93;;;1.83;;
4311;SDS011;2169;49.086;9.284;2023-05-10T07:03:40;2.23;;;2.03;;
4311;SDS011;2169;49.086;9.284;2023-05-10T07:06:07;1.60;;;1.50;;
4311;SDS011;2169;49.086;9.284;2023-05-10T07:08:33;1.70;;;1.60;;
4311;SDS011;2169;49.086;9.284;2023-05-10T07:11:02;0.87;;;0.87;;
4311;SDS011;2169;49.086;9.284;2023-05-10T07:13:30;2.23;;;2.03;;
4311;SDS011;2169;49.086;9.284;2023-05-10T07:15:57;1.47;;;1.37;;
4311;SDS011;2169;49.086;9.284;2023-05-10T07:18:24;4.13;;;1.13;;
4311;SDS011;2169;49.086;9.284;2023-05-10T07:20:51;0.93;;;0.90;;
4311;SDS011;2169;49.086;9.284;2023-05-10T07:23:17;1.40;;;1.30;;
4311;SDS011;2169;49.086;9.284;2023-05-10T07:25:45;6.70;;;1.47;;
4311;SDS011;2169;49.086;9.284;2023-05-10T07:28:13;2.30;;;1.43;;
4311;SDS011;2169;49.086;9.284;2023-05-10T07:30:41;1.57;;;1.40;;
4311;SDS011;2169;49.086;9.284;2023-05-10T07:33:09;1.00;;;1.00;;
4311;SDS011;2169;49.086;9.284;2023-05-10T07:35:36;1.53;;;1.23;;
4311;SDS011;2169;49.086;9.284;2023-05-10T07:38:03;2.33;;;2.23;;
4311;SDS011;2169;49.086;9.284;2023-05-10T07:40:30;1.20;;;0.83;;
4311;SDS011;2169;49.086;9.284;2023-05-10T07:42:57;1.20;;;1.20;;
4311;SDS011;2169;49.086;9.284;2023-05-10T07:45:26;1.30;;;1.30;;
4311;SDS011;2169;49.086;9.284;2023-05-10T07:47:52;1.60;;;1.10;;
4311;SDS011;2169;49.086;9.284;2023-05-10T07:50:19;4.87;;;1.00;;
4311;SDS011;2169;49.086;9.284;2023-05-10T07:52:46;1.00;;;1.00;;
4311;SDS011;2169;49.086;9.284;2023-05-10T07:55:13;0.80;;;0.80;;
4311;SDS011;2169;49.086;9.284;2023-05-10T07:57:41;1.57;;;1.13;;
4311;SDS011;2169;49.086;9.284;2023-05-10T08:00:08;1.10;;;1.10;;
4311;SDS011;2169;49.086;9.284;2023-05-10T08:02:39;1.20;;;1.00;;
4311;SDS011;2169;49.086;9.284;2023-05-10T08:05:07;0.90;;;0.90;;
4311;SDS011;2169;49.086;9.284;2023-05-10T08:07:34;0.83;;;0.83;;
4311;SDS011;2169;49.086;9.284;2023-05-10T08:10:01;0.90;;;0.80;;
4311;SDS011;2169;49.086;9.284;2023-05-10T08:12:28;0.80;;;0.80;;
4311;SDS011;2169;49.086;9.284;2023-05-10T08:14:55;0.90;;;0.90;;
4311;SDS011;2169;49.086;9.284;2023-05-10T08:17:22;3.20;;;1.00;;
4311;SDS011;2169;49.086;9.284;2023-05-10T08:19:50;0.90;;;0.90;;
4311;SDS011;2169;49.086;9.284;2023-05-10T08:22:16;0.70;;;0.70;;
4311;SDS011;2169;49.086;9.284;2023-05-10T08:24:43;0.80;;;0.80;;
4311;SDS011;2169;49.086;9.284;2023-05-10T08:27:10;0.70;;;0.70;;
4311;SDS011;2169;49.086;9.284;2023-05-10T08:29:37;0.73;;;0.73;;
4311;SDS011;2169;49.086;9.284;2023-05-10T08:32:04;1.73;;;1.03;;
4311;SDS011;2169;49.086;9.284;2023-05-10T08:34:30;3.37;;;0.80;;
4311;SDS011;2169;49.086;9.284;2023-05-10T08:36:59;1.00;;;0.90;;
4311;SDS011;2169;49.086;9.284;2023-05-10T08:39:25;0.70;;;0.70;;
4311;SDS011;2169;49.086;9.284;2023-05-10T08:41:52;0.70;;;0.70;;
4311;SDS011;2169;49.086;9.284;2023-05-10T08:44:24;1.73;;;1.00;;
4311;SDS011;2169;49.086;9.284;2023-05-10T08:46:52;0.80;;;0.80;;
4311;SDS011;2169;49.086;9.284;2023-05-10T08:49:20;0.90;;;0.90;;
4311;SDS011;2169;49.086;9.284;2023-05-10T08:51:49;0.70;;;0.70;;
4311;SDS011;2169;49.086;9.284;2023-05-10T08:54:19;1.00;;;0.83;;
4311;SDS011;2169;49.086;9.284;2023-05-10T08:56:47;2.97;;;0.80;;
4311;SDS011;2169;49.086;9.284;2023-05-10T08:59:14;0.70;;;0.70;;
4311;SDS011;2169;49.086;9.284;2023-05-10T09:01:41;1.77;;;0.97;;
4311;SDS011;2169;49.086;9.284;2023-05-10T09:04:11;1.50;;;0.80;;
4311;SDS011;2169;49.086;9.284;2023-05-10T09:06:38;0.80;;;0.80;;
4311;SDS011;2169;49.086;9.284;2023-05-10T09:09:05;0.87;;;0.83;;
4311;SDS011;2169;49.086;9.284;2023-05-10T09:11:33;0.80;;;0.80;;
4311;SDS011;2169;49.086;9.284;2023-05-10T09:14:00;0.70;;;0.70;;
4311;SDS011;2169;49.086;9.284;2023-05-10T09:16:27;1.33;;;1.00;;
4311;SDS011;2169;49.086;9.284;2023-05-10T09:18:54;0.77;;;0.77;;
4311;SDS011;2169;49.086;9.284;2023-05-10T09:21:21;2.50;;;1.20;;
4311;SDS011;2169;49.086;9.284;2023-05-10T09:23:47;3.37;;;0.87;;
4311;SDS011;2169;49.086;9.284;2023-05-10T09:26:16;1.17;;;1.10;;
4311;SDS011;2169;49.086;9.284;2023-05-10T09:28:53;1.03;;;0.93;;
4311;SDS011;2169;49.086;9.284;2023-05-10T09:31:22;6.00;;;2.97;;
4311;SDS011;2169;49.086;9.284;2023-05-10T09:33:52;0.80;;;0.80;;
4311;SDS011;2169;49.086;9.284;2023-05-10T09:36:19;0.83;;;0.83;;
4311;SDS011;2169;49.086;9.284;2023-05-10T09:38:46;1.27;;;1.27;;
4311;SDS011;2169;49.086;9.284;2023-05-10T09:41:17;0.70;;;0.70;;
4311;SDS011;2169;49.086;9.284;2023-05-10T09:43:45;1.27;;;1.20;;
4311;SDS011;2169;49.086;9.284;2023-05-10T09:46:13;2.10;;;0.90;;
4311;SDS011;2169;49.086;9.284;2023-05-10T09:48:41;1.13;;;0.80;;
4311;SDS011;2169;49.086;9.284;2023-05-10T09:51:09;0.90;;;0.90;;
4311;SDS011;2169;49.086;9.284;2023-05-10T09:53:36;0.80;;;0.80;;
4311;SDS011;2169;49.086;9.284;2023-05-10T09:56:03;0.70;;;0.70;;
4311;SDS011;2169;49.086;9.284;2023-05-10T09:58:29;0.80;;;0.80;;
4311;SDS011;2169;49.086;9.284;2023-05-10T10:00:56;0.60;;;0.60;;
4311;SDS011;2169;49.086;9.284;2023-05-10T10:03:25;0.77;;;0.77;;
4311;SDS011;2169;49.086;9.284;2023-05-10T10:05:52;0.70;;;0.70;;
4311;SDS011;2169;49.086;9.284;2023-05-10T10:08:20;1.33;;;0.70;;
4311;SDS011;2169;49.086;9.284;2023-05-10T10:10:48;0.93;;;0.83;;
4311;SDS011;2169;49.086;9.284;2023-05-10T10:13:15;0.70;;;0.70;;
4311;SDS011;2169;49.086;9.284;2023-05-10T10:15:42;1.80;;;0.80;;
4311;SDS011;2169;49.086;9.284;2023-05-10T10:18:12;2.20;;;1.03;;
4311;SDS011;2169;49.086;9.284;2023-05-10T10:20:41;2.93;;;1.10;;
4311;SDS011;2169;49.086;9.284;2023-05-10T10:23:08;1.00;;;0.87;;
4311;SDS011;2169;49.086;9.284;2023-05-10T10:25:35;0.87;;;0.87;;
4311;SDS011;2169;49.086;9.284;2023-05-10T10:28:08;0.70;;;0.70;;
4311;SDS011;2169;49.086;9.284;2023-05-10T10:30:47;0.67;;;0.67;;
4311;SDS011;2169;49.086;9.284;2023-05-10T10:33:29;1.00;;;1.00;;
4311;SDS011;2169;49.086;9.284;2023-05-10T10:36:06;9.67;;;1.20;;
4311;SDS011;2169;49.086;9.284;2023-05-10T10:38:37;0.80;;;0.80;;
4311;SDS011;2169;49.086;9.284;2023-05-10T10:41:27;1.07;;;0.70;;
4311;SDS011;2169;49.086;9.284;2023-05-10T10:50:04;0.80;;;0.80;;
4311;SDS011;2169;49.086;9.284;2023-05-10T10:52:34;2.40;;;1.00;;
4311;SDS011;2169;49.086;9.284;2023-05-10T10:55:02;4.50;;;1.10;;
4311;SDS011;2169;49.086;9.284;2023-05-10T10:57:31;4.33;;;0.70;;
4311;SDS011;2169;49.086;9.284;2023-05-10T11:00:18;0.73;;;0.73;;
4311;SDS011;2169;49.086;9.284;2023-05-10T11:02:46;0.80;;;0.80;;
4311;SDS011;2169;49.086;9.284;2023-05-10T11:05:24;1.57;;;0.83;;
4311;SDS011;2169;49.086;9.284;2023-05-10T11:08:17;0.80;;;0.80;;
4311;SDS011;2169;49.086;9.284;2023-05-10T11:10:53;0.60;;;0.60;;
4311;SDS011;2169;49.086;9.284;2023-05-10T11:13:32;2.23;;;0.73;;
4311;SDS011;2169;49.086;9.284;2023-05-10T11:16:10;0.83;;;0.83;;
4311;SDS011;2169;49.086;9.284;2023-05-10T11:18:59;0.80;;;0.80;;
4311;SDS011;2169;49.086;9.284;2023-05-10T11:21:28;1.23;;;0.77;;
4311;SDS011;2169;49.086;9.284;2023-05-10T11:23:57;0.70;;;0.70;;
4311;SDS011;2169;49.086;9.284;2023-05-10T11:26:26;2.40;;;0.93;;
4311;SDS011;2169;49.086;9.284;2023-05-10T11:28:57;1.63;;;0.60;;
4311;SDS011;2169;49.086;9.284;2023-05-10T11:31:25;0.70;;;0.70;;
4311;SDS011;2169;49.086;9.284;2023-05-10T11:33:53;0.70;;;0.70;;
4311;SDS011;2169;49.086;9.284;2023-05-10T11:36:22;0.80;;;0.80;;
4311;SDS011;2169;49.086;9.284;2023-05-10T11:38:51;3.73;;;0.80;;
4311;SDS011;2169;49.086;9.284;2023-05-10T11:41:19;3.63;;;0.73;;
4311;SDS011;2169;49.086;9.284;2023-05-10T11:43:49;0.77;;;0.77;;
4311;SDS011;2169;49.086;9.284;2023-05-10T11:46:17;3.30;;;0.90;;
4311;SDS011;2169;49.086;9.284;2023-05-10T11:48:45;0.70;;;0.70;;
4311;SDS011;2169;49.086;9.284;2023-05-10T11:51:15;0.60;;;0.60;;
4311;SDS011;2169;49.086;9.284;2023-05-10T11:53:45;9.53;;;1.77;;
4311;SDS011;2169;49.086;9.284;2023-05-10T11:56:12;0.70;;;0.70;;
4311;SDS011;2169;49.086;9.284;2023-05-10T11:58:40;1.67;;;0.93;;
4311;SDS011;2169;49.086;9.284;2023-05-10T12:01:07;0.70;;;0.70;;
4311;SDS011;2169;49.086;9.284;2023-05-10T12:03:35;1.67;;;0.83;;
4311;SDS011;2169;49.086;9.284;2023-05-10T12:06:03;2.33;;;0.73;;
4311;SDS011;2169;49.086;9.284;2023-05-10T12:08:30;0.63;;;0.63;;
4311;SDS011;2169;49.086;9.284;2023-05-10T12:11:04;0.77;;;0.77;;
4311;SDS011;2169;49.086;9.284;2023-05-10T12:13:31;0.70;;;0.70;;
4311;SDS011;2169;49.086;9.284;2023-05-10T12:15:59;3.17;;;0.93;;
4311;SDS011;2169;49.086;9.284;2023-05-10T12:18:39;2.47;;;0.60;;
4311;SDS011;2169;49.086;9.284;2023-05-10T12:21:06;1.03;;;0.80;;
4311;SDS011;2169;49.086;9.284;2023-05-10T12:23:33;0.87;;;0.87;;
4311;SDS011;2169;49.086;9.284;2023-05-10T12:26:01;0.63;;;0.63;;
4311;SDS011;2169;49.086;9.284;2023-05-10T12:28:29;1.27;;;0.70;;
4311;SDS011;2169;49.086;9.284;2023-05-10T12:30:57;0.80;;;0.80;;
4311;SDS011;2169;49.086;9.284;2023-05-10T12:33:26;1.97;;;1.00;;
4311;SDS011;2169;49.086;9.284;2023-05-10T12:35:53;0.80;;;0.80;;
4311;SDS011;2169;49.086;9.284;2023-05-10T12:38:24;1.40;;;1.30;;
4311;SDS011;2169;49.086;9.284;2023-05-10T12:40:57;1.63;;;0.70;;
4311;SDS011;2169;49.086;9.284;2023-05-10T12:44:20;1.50;;;1.03;;
4311;SDS011;2169;49.086;9.284;2023-05-10T12:46:47;0.97;;;0.87;;
4311;SDS011;2169;49.086;9.284;2023-05-10T12:49:15;3.20;;;0.73;;
4311;SDS011;2169;49.086;9.284;2023-05-10T12:51:43;2.60;;;1.20;;
4311;SDS011;2169;49.086;9.284;2023-05-10T12:54:11;1.03;;;1.03;;
4311;SDS011;2169;49.086;9.284;2023-05-10T12:56:38;0.87;;;0.87;;
4311;SDS011;2169;49.086;9.284;2023-05-10T12:59:05;0.90;;;0.90;;
4311;SDS011;2169;49.086;9.284;2023-05-10T13:01:32;1.03;;;0.77;;
4311;SDS011;2169;49.086;9.284;2023-05-10T13:03:59;1.03;;;0.80;;
4311;SDS011;2169;49.086;9.284;2023-05-10T13:06:27;0.97;;;0.93;;
4311;SDS011;2169;49.086;9.284;2023-05-10T13:08:54;1.57;;;1.03;;
4311;SDS011;2169;49.086;9.284;2023-05-10T13:11:22;2.50;;;0.73;;
4311;SDS011;2169;49.086;9.284;2023-05-10T13:13:49;1.53;;;1.17;;
4311;SDS011;2169;49.086;9.284;2023-05-10T13:16:16;2.20;;;2.03;;
4311;SDS011;2169;49.086;9.284;2023-05-10T13:18:42;1.23;;;1.13;;
4311;SDS011;2169;49.086;9.284;2023-05-10T13:21:09;5.20;;;1.93;;
4311;SDS011;2169;49.086;9.284;2023-05-10T13:23:37;1.93;;;0.80;;
4311;SDS011;2169;49.086;9.284;2023-05-10T13:26:04;0.93;;;0.80;;
4311;SDS011;2169;49.086;9.284;2023-05-10T13:28:31;0.70;;;0.70;;
4311;SDS011;2169;49.086;9.284;2023-05-10T13:30:57;2.17;;;0.83;;
4311;SDS011;2169;49.086;9.284;2023-05-10T13:33:25;0.97;;;0.97;;
4311;SDS011;2169;49.086;9.284;2023-05-10T13:35:51;0.70;;;0.70;;
4311;SDS011;2169;49.086;9.284;2023-05-10T13:38:18;1.13;;;1.13;;
4311;SDS011;2169;49.086;9.284;2023-05-10T13:40:46;3.10;;;2.90;;
4311;SDS011;2169;49.086;9.284;2023-05-10T13:43:13;0.90;;;0.90;;
4311;SDS011;2169;49.086;9.284;2023-05-10T13:45:40;3.37;;;1.20;;
4311;SDS011;2169;49.086;9.284;2023-05-10T13:48:06;1.10;;;0.77;;
4311;SDS011;2169;49.086;9.284;2023-05-10T13:50:33;1.30;;;1.30;;
4311;SDS011;2169;49.086;9.284;2023-05-10T13:53:00;3.67;;;0.93;;
4311;SDS011;2169;49.086;9.284;2023-05-10T13:55:27;0.80;;;0.80;;
4311;SDS011;2169;49.086;9.284;2023-05-10T13:57:55;1.00;;;1.00;;
4311;SDS011;2169;49.086;9.284;2023-05-10T14:00:22;2.30;;;0.80;;
4311;SDS011;2169;49.086;9.284;2023-05-10T14:02:48;0.60;;;0.60;;
4311;SDS011;2169;49.086;9.284;2023-05-10T14:05:15;0.93;;;0.60;;
4311;SDS011;2169;49.086;9.284;2023-05-10T14:07:42;9.10;;;0.80;;
4311;SDS011;2169;49.086;9.284;2023-05-10T14:10:09;10.87;;;1.00;;
4311;SDS011;2169;49.086;9.284;2023-05-10T14:12:36;0.60;;;0.60;;
4311;SDS011;2169;49.086;9.284;2023-05-10T14:15:04;0.60;;;0.60;;
4311;SDS011;2169;49.086;9.284;2023-05-10T14:17:31;2.33;;;0.70;;
4311;SDS011;2169;49.086;9.284;2023-05-10T14:19:58;0.60;;;0.60;;
4311;SDS011;2169;49.086;9.284;2023-05-10T14:22:25;2.67;;;0.70;;
4311;SDS011;2169;49.086;9.284;2023-05-10T14:24:52;0.70;;;0.70;;
4311;SDS011;2169;49.086;9.284;2023-05-10T14:27:19;0.60;;;0.60;;
4311;SDS011;2169;49.086;9.284;2023-05-10T14:29:46;0.70;;;0.70;;
4311;SDS011;2169;49.086;9.284;2023-05-10T14:32:14;0.90;;;0.70;;
4311;SDS011;2169;49.086;9.284;2023-05-10T14:34:41;0.60;;;0.60;;
4311;SDS011;2169;49.086;9.284;2023-05-10T14:37:09;2.30;;;0.67;;
4311;SDS011;2169;49.086;9.284;2023-05-10T14:39:37;2.40;;;0.70;;
4311;SDS011;2169;49.086;9.284;2023-05-10T14:42:04;0.63;;;0.63;;
4311;SDS011;2169;49.086;9.284;2023-05-10T14:44:30;2.83;;;1.10;;
4311;SDS011;2169;49.086;9.284;2023-05-10T14:46:57;0.57;;;0.57;;
4311;SDS011;2169;49.086;9.284;2023-05-10T14:49:26;1.13;;;1.13;;
4311;SDS011;2169;49.086;9.284;2023-05-10T14:51:52;0.70;;;0.70;;
4311;SDS011;2169;49.086;9.284;2023-05-10T14:54:19;0.50;;;0.50;;
4311;SDS011;2169;49.086;9.284;2023-05-10T14:56:46;0.90;;;0.60;;
4311;SDS011;2169;49.086;9.284;2023-05-10T14:59:14;5.80;;;0.90;;
4311;SDS011;2169;49.086;9.284;2023-05-10T15:01:41;1.47;;;0.70;;
4311;SDS011;2169;49.086;9.284;2023-05-10T15:04:08;0.90;;;0.70;;
4311;SDS011;2169;49.086;9.284;2023-05-10T15:06:36;0.60;;;0.60;;
4311;SDS011;2169;49.086;9.284;2023-05-10T15:09:03;0.77;;;0.77;;
4311;SDS011;2169;49.086;9.284;2023-05-10T15:11:29;1.13;;;0.80;;
4311;SDS011;2169;49.086;9.284;2023-05-10T15:13:57;0.50;;;0.50;;
4311;SDS011;2169;49.086;9.284;2023-05-10T15:16:23;0.70;;;0.70;;
4311;SDS011;2169;49.086;9.284;2023-05-10T15:18:50;0.73;;;0.70;;
4311;SDS011;2169;49.086;9.284;2023-05-10T15:21:17;0.87;;;0.77;;
4311;SDS011;2169;49.086;9.284;2023-05-10T15:23:45;0.90;;;0.60;;
4311;SDS011;2169;49.086;9.284;2023-05-10T15:26:12;0.67;;;0.67;;
4311;SDS011;2169;49.086;9.284;2023-05-10T15:28:39;2.20;;;1.20;;
4311;SDS011;2169;49.086;9.284;2023-05-10T15:31:05;0.60;;;0.50;;
4311;SDS011;2169;49.086;9.284;2023-05-10T15:33:32;0.60;;;0.60;;